createdAt,value
2017-01-26T00:00:08.976Z,5.47
2017-01-26T00:00:39.011Z,5.49
2017-01-26T00:01:09.042Z,5.5
2017-01-26T00:01:39.075Z,5.49
2017-01-26T00:02:09.106Z,5.49
2017-01-26T00:02:39.135Z,5.46
2017-01-26T00:03:09.172Z,5.46
2017-01-26T00:03:39.204Z,5.46
2017-01-26T00:04:09.237Z,5.44
2017-01-26T00:04:39.268Z,5.43
2017-01-26T00:05:09.303Z,5.42
2017-01-26T00:05:39.338Z,5.42
2017-01-26T00:06:09.367Z,5.42
2017-01-26T00:06:39.402Z,5.42
2017-01-26T00:07:09.461Z,5.41
2017-01-26T00:07:39.471Z,5.42
2017-01-26T00:08:09.498Z,5.41
2017-01-26T00:08:39.533Z,5.43
2017-01-26T00:09:09.571Z,5.42
2017-01-26T00:09:39.600Z,5.4
2017-01-26T00:10:09.635Z,5.39
2017-01-26T00:10:39.665Z,5.41
2017-01-26T00:11:09.729Z,5.4
2017-01-26T00:11:39.731Z,5.41
2017-01-26T00:12:09.763Z,5.41
2017-01-26T00:12:39.797Z,5.41
2017-01-26T00:13:09.836Z,5.4
2017-01-26T00:13:39.864Z,5.4
2017-01-26T00:14:09.898Z,5.39
2017-01-26T00:14:39.927Z,5.39
2017-01-26T00:15:09.958Z,5.38
2017-01-26T00:15:39.992Z,5.39
2017-01-26T00:16:10.026Z,5.39
2017-01-26T00:16:40.065Z,5.42
2017-01-26T00:17:10.093Z,5.43
2017-01-26T00:17:40.127Z,5.45
2017-01-26T00:18:10.157Z,5.45
2017-01-26T00:18:40.188Z,5.44
2017-01-26T00:19:10.222Z,5.44
2017-01-26T00:19:40.257Z,5.46
2017-01-26T00:20:10.290Z,5.44
2017-01-26T00:20:40.320Z,5.43
2017-01-26T00:21:10.354Z,5.43
2017-01-26T00:21:40.388Z,5.44
2017-01-26T00:22:10.427Z,5.45
2017-01-26T00:22:40.455Z,5.43
2017-01-26T00:23:10.487Z,5.44
2017-01-26T00:23:40.542Z,5.43
2017-01-26T00:24:10.551Z,5.41
2017-01-26T00:24:40.596Z,5.43
2017-01-26T00:25:10.613Z,5.42
2017-01-26T00:25:40.649Z,5.41
2017-01-26T00:26:10.685Z,5.42
2017-01-26T00:26:40.720Z,5.43
2017-01-26T00:27:10.749Z,5.44
2017-01-26T00:27:40.783Z,5.44
2017-01-26T00:28:10.813Z,5.46
2017-01-26T00:28:40.846Z,5.45
2017-01-26T00:29:10.883Z,5.44
2017-01-26T00:29:40.913Z,5.44
2017-01-26T00:30:10.947Z,5.45
2017-01-26T00:30:40.981Z,5.46
2017-01-26T00:31:11.010Z,5.46
2017-01-26T00:31:41.045Z,5.46
2017-01-26T00:32:11.080Z,5.48
2017-01-26T00:32:41.112Z,5.49
2017-01-26T00:33:11.145Z,5.49
2017-01-26T00:33:41.175Z,5.5
2017-01-26T00:34:11.210Z,5.48
2017-01-26T00:34:41.243Z,5.47
2017-01-26T00:35:11.279Z,5.47
2017-01-26T00:35:41.307Z,5.46
2017-01-26T00:36:11.341Z,5.47
2017-01-26T00:36:41.375Z,5.48
2017-01-26T00:37:11.408Z,5.49
2017-01-26T00:37:41.442Z,5.49
2017-01-26T00:38:11.472Z,5.5
2017-01-26T00:38:41.509Z,5.49
2017-01-26T00:39:11.541Z,5.49
2017-01-26T00:39:41.571Z,5.49
2017-01-26T00:40:11.611Z,5.48
2017-01-26T00:40:41.639Z,5.49
2017-01-26T00:41:11.671Z,5.5
2017-01-26T00:41:41.703Z,5.5
2017-01-26T00:42:11.737Z,5.51
2017-01-26T00:42:41.772Z,5.5
2017-01-26T00:43:11.802Z,5.51
2017-01-26T00:43:41.838Z,5.51
2017-01-26T00:44:11.874Z,5.49
2017-01-26T00:44:41.901Z,5.51
2017-01-26T00:45:11.933Z,5.51
2017-01-26T00:45:41.967Z,5.52
2017-01-26T00:46:12.000Z,5.5
2017-01-26T00:46:42.031Z,5.52
2017-01-26T00:47:12.063Z,5.53
2017-01-26T00:47:42.098Z,5.55
2017-01-26T00:48:12.131Z,5.53
2017-01-26T00:48:42.167Z,5.54
2017-01-26T00:49:12.197Z,5.55
2017-01-26T00:49:42.235Z,5.54
2017-01-26T00:50:12.264Z,5.55
2017-01-26T00:50:42.295Z,5.56
2017-01-26T00:51:12.330Z,5.56
2017-01-26T00:51:42.364Z,5.56
2017-01-26T00:52:12.394Z,5.57
2017-01-26T00:52:42.430Z,5.57
2017-01-26T00:53:12.464Z,5.58
2017-01-26T00:53:42.502Z,5.59
2017-01-26T00:54:12.527Z,5.58
2017-01-26T00:54:42.560Z,5.57
2017-01-26T00:55:12.595Z,5.59
2017-01-26T00:55:42.628Z,5.59
2017-01-26T00:56:12.660Z,5.58
2017-01-26T00:56:42.693Z,5.58
2017-01-26T00:57:12.724Z,5.58
2017-01-26T00:57:42.762Z,5.56
2017-01-26T00:58:12.792Z,5.56
2017-01-26T00:58:42.826Z,5.57
2017-01-26T00:59:12.857Z,5.57
2017-01-26T00:59:42.890Z,5.54
2017-01-26T01:00:12.923Z,5.55
2017-01-26T01:00:42.958Z,5.56
2017-01-26T01:01:12.991Z,5.55
2017-01-26T01:01:43.029Z,5.56
2017-01-26T01:02:13.057Z,5.57
2017-01-26T01:02:43.087Z,5.57
2017-01-26T01:03:13.124Z,5.58
2017-01-26T01:03:43.153Z,5.59
2017-01-26T01:04:13.186Z,5.6
2017-01-26T01:04:43.221Z,5.6
2017-01-26T01:05:13.256Z,5.59
2017-01-26T01:05:43.291Z,5.61
2017-01-26T01:06:13.319Z,5.6
2017-01-26T01:06:43.353Z,5.6
2017-01-26T01:07:13.396Z,5.6
2017-01-26T01:07:43.420Z,5.6
2017-01-26T01:08:13.451Z,5.62
2017-01-26T01:08:43.484Z,5.62
2017-01-26T01:09:13.517Z,5.61
2017-01-26T01:09:43.556Z,5.61
2017-01-26T01:10:13.583Z,5.59
2017-01-26T01:10:43.618Z,5.59
2017-01-26T01:11:13.674Z,5.59
2017-01-26T01:11:43.683Z,5.59
2017-01-26T01:12:13.715Z,5.6
2017-01-26T01:12:43.748Z,5.6
2017-01-26T01:13:13.781Z,5.59
2017-01-26T01:13:43.813Z,5.6
2017-01-26T01:14:13.852Z,5.59
2017-01-26T01:14:43.908Z,5.58
2017-01-26T01:15:13.914Z,5.59
2017-01-26T01:15:43.946Z,5.59
2017-01-26T01:16:13.980Z,5.59
2017-01-26T01:16:44.012Z,5.6
2017-01-26T01:17:14.045Z,5.59
2017-01-26T01:17:44.078Z,5.59
2017-01-26T01:18:14.112Z,5.6
2017-01-26T01:18:44.143Z,5.59
2017-01-26T01:19:14.184Z,5.57
2017-01-26T01:19:44.211Z,5.57
2017-01-26T01:20:14.263Z,5.56
2017-01-26T01:20:44.278Z,5.55
2017-01-26T01:21:14.310Z,5.56
2017-01-26T01:21:44.342Z,5.56
2017-01-26T01:22:14.376Z,5.56
2017-01-26T01:22:44.411Z,5.57
2017-01-26T01:23:14.442Z,5.56
2017-01-26T01:23:44.475Z,5.56
2017-01-26T01:24:14.507Z,5.57
2017-01-26T01:24:44.539Z,5.57
2017-01-26T01:25:14.575Z,5.57
2017-01-26T01:25:44.610Z,5.57
2017-01-26T01:26:14.637Z,5.58
2017-01-26T01:26:44.676Z,5.59
2017-01-26T01:27:14.705Z,5.59
2017-01-26T01:27:44.741Z,5.59
2017-01-26T01:28:14.771Z,5.56
2017-01-26T01:28:44.805Z,5.54
2017-01-26T01:29:14.839Z,5.55
2017-01-26T01:29:44.876Z,5.55
2017-01-26T01:30:14.903Z,5.54
2017-01-26T01:30:44.935Z,5.55
2017-01-26T01:31:14.967Z,5.54
2017-01-26T01:31:45.001Z,5.54
2017-01-26T01:32:15.064Z,5.55
2017-01-26T01:32:45.065Z,5.56
2017-01-26T01:33:15.101Z,5.56
2017-01-26T01:33:45.132Z,5.57
2017-01-26T01:34:15.168Z,5.57
2017-01-26T01:34:45.198Z,5.58
2017-01-26T01:35:15.249Z,5.58
2017-01-26T01:35:45.267Z,5.57
2017-01-26T01:36:15.301Z,5.56
2017-01-26T01:36:45.328Z,5.56
2017-01-26T01:37:15.363Z,5.56
2017-01-26T01:37:45.400Z,5.56
2017-01-26T01:38:15.447Z,5.55
2017-01-26T01:38:45.465Z,5.54
2017-01-26T01:39:15.496Z,5.54
2017-01-26T01:39:45.527Z,5.53
2017-01-26T01:40:15.558Z,5.54
2017-01-26T01:40:45.596Z,5.53
2017-01-26T01:41:15.797Z,5.53
2017-01-26T01:41:45.660Z,5.53
2017-01-26T01:42:15.692Z,5.54
2017-01-26T01:42:45.728Z,5.53
2017-01-26T01:43:15.760Z,5.54
2017-01-26T01:43:45.792Z,5.54
2017-01-26T01:44:15.843Z,5.54
2017-01-26T01:44:45.858Z,5.56
2017-01-26T01:45:15.895Z,5.57
2017-01-26T01:45:45.927Z,5.59
2017-01-26T01:46:15.957Z,5.58
2017-01-26T01:46:45.988Z,5.58
2017-01-26T01:47:16.021Z,5.59
2017-01-26T01:47:46.056Z,5.59
2017-01-26T01:48:16.090Z,5.58
2017-01-26T01:48:46.153Z,5.59
2017-01-26T01:49:16.156Z,5.58
2017-01-26T01:49:46.187Z,5.59
2017-01-26T01:50:16.224Z,5.58
2017-01-26T01:50:46.258Z,5.56
2017-01-26T01:51:16.294Z,5.56
2017-01-26T01:51:46.323Z,5.56
2017-01-26T01:52:16.352Z,5.55
2017-01-26T01:52:46.387Z,5.55
2017-01-26T01:53:16.420Z,5.54
2017-01-26T01:53:46.455Z,5.55
2017-01-26T01:54:16.487Z,5.54
2017-01-26T01:54:46.521Z,5.54
2017-01-26T01:55:16.553Z,5.54
2017-01-26T01:55:46.588Z,5.54
2017-01-26T01:56:16.622Z,5.55
2017-01-26T01:56:46.656Z,5.54
2017-01-26T01:57:16.681Z,5.55
2017-01-26T01:57:46.718Z,5.55
2017-01-26T01:58:16.749Z,5.54
2017-01-26T01:58:46.783Z,5.55
2017-01-26T01:59:16.825Z,5.56
2017-01-26T01:59:46.849Z,5.55
2017-01-26T02:00:16.883Z,5.53
2017-01-26T02:00:46.912Z,5.51
2017-01-26T02:01:16.949Z,5.52
2017-01-26T02:01:46.982Z,5.52
2017-01-26T02:02:17.018Z,5.52
2017-01-26T02:02:47.050Z,5.52
2017-01-26T02:03:17.079Z,5.49
2017-01-26T02:03:47.113Z,5.49
2017-01-26T02:04:17.146Z,5.5
2017-01-26T02:04:47.178Z,5.51
2017-01-26T02:05:17.215Z,5.51
2017-01-26T02:05:47.250Z,5.51
2017-01-26T02:06:17.276Z,5.5
2017-01-26T02:06:47.309Z,5.5
2017-01-26T02:07:17.343Z,5.48
2017-01-26T02:07:47.374Z,5.48
2017-01-26T02:08:17.411Z,5.49
2017-01-26T02:08:47.449Z,5.5
2017-01-26T02:09:17.476Z,5.5
2017-01-26T02:09:47.508Z,5.5
2017-01-26T02:10:17.557Z,5.5
2017-01-26T02:10:47.590Z,5.5
2017-01-26T02:11:17.612Z,5.5
2017-01-26T02:11:47.640Z,5.49
2017-01-26T02:12:17.674Z,5.5
2017-01-26T02:12:47.709Z,5.49
2017-01-26T02:13:17.738Z,5.5
2017-01-26T02:13:47.770Z,5.51
2017-01-26T02:14:17.806Z,5.5
2017-01-26T02:14:47.836Z,5.5
2017-01-26T02:15:17.870Z,5.51
2017-01-26T02:15:47.905Z,5.5
2017-01-26T02:16:17.981Z,5.5
2017-01-26T02:16:47.966Z,5.5
2017-01-26T02:17:18.006Z,5.5
2017-01-26T02:17:48.043Z,5.5
2017-01-26T02:18:18.072Z,5.51
2017-01-26T02:18:48.103Z,5.47
2017-01-26T02:19:18.135Z,5.47
2017-01-26T02:19:48.172Z,5.47
2017-01-26T02:20:18.205Z,5.47
2017-01-26T02:20:48.234Z,5.47
2017-01-26T02:21:18.263Z,5.47
2017-01-26T02:21:48.300Z,5.49
2017-01-26T02:22:18.332Z,5.5
2017-01-26T02:22:48.372Z,5.51
2017-01-26T02:23:18.397Z,5.52
2017-01-26T02:23:48.435Z,5.52
2017-01-26T02:24:18.468Z,5.51
2017-01-26T02:24:48.497Z,5.51
2017-01-26T02:25:18.533Z,5.51
2017-01-26T02:25:48.566Z,5.5
2017-01-26T02:26:18.593Z,5.48
2017-01-26T02:26:48.633Z,5.47
2017-01-26T02:27:18.662Z,5.48
2017-01-26T02:27:48.692Z,5.49
2017-01-26T02:28:18.725Z,5.48
2017-01-26T02:28:48.763Z,5.48
2017-01-26T02:29:18.795Z,5.48
2017-01-26T02:29:48.824Z,5.48
2017-01-26T02:30:18.863Z,5.47
2017-01-26T02:30:48.890Z,5.46
2017-01-26T02:31:18.927Z,5.46
2017-01-26T02:31:48.955Z,5.46
2017-01-26T02:32:18.997Z,5.47
2017-01-26T02:32:49.028Z,5.48
2017-01-26T02:33:19.058Z,5.5
2017-01-26T02:33:49.089Z,5.49
2017-01-26T02:34:19.121Z,5.49
2017-01-26T02:34:49.155Z,5.48
2017-01-26T02:35:19.187Z,5.48
2017-01-26T02:35:49.220Z,5.49
2017-01-26T02:36:19.257Z,5.48
2017-01-26T02:36:49.286Z,5.5
2017-01-26T02:37:19.321Z,5.51
2017-01-26T02:37:49.354Z,5.54
2017-01-26T02:38:19.384Z,5.55
2017-01-26T02:38:49.418Z,5.55
2017-01-26T02:39:19.451Z,5.56
2017-01-26T02:39:49.487Z,5.54
2017-01-26T02:40:19.516Z,5.53
2017-01-26T02:40:49.548Z,5.53
2017-01-26T02:41:19.583Z,5.52
2017-01-26T02:41:49.617Z,5.5
2017-01-26T02:42:19.650Z,5.49
2017-01-26T02:42:49.680Z,5.48
2017-01-26T02:43:19.713Z,5.46
2017-01-26T02:43:49.745Z,5.46
2017-01-26T02:44:19.779Z,5.47
2017-01-26T02:44:49.831Z,5.47
2017-01-26T02:45:19.845Z,5.47
2017-01-26T02:45:49.881Z,5.49
2017-01-26T02:46:19.913Z,5.49
2017-01-26T02:46:49.945Z,5.49
2017-01-26T02:47:19.979Z,5.48
2017-01-26T02:47:50.019Z,5.49
2017-01-26T02:48:20.048Z,5.49
2017-01-26T02:48:50.077Z,5.47
2017-01-26T02:49:20.112Z,5.48
2017-01-26T02:49:50.144Z,5.48
2017-01-26T02:50:20.176Z,5.47
2017-01-26T02:50:50.208Z,5.47
2017-01-26T02:51:20.244Z,5.44
2017-01-26T02:51:50.275Z,5.43
2017-01-26T02:52:20.308Z,5.43
2017-01-26T02:52:50.345Z,5.46
2017-01-26T02:53:20.374Z,5.47
2017-01-26T02:53:50.409Z,5.48
2017-01-26T02:54:20.441Z,5.48
2017-01-26T02:54:50.477Z,5.46
2017-01-26T02:55:20.505Z,5.47
2017-01-26T02:55:50.716Z,5.48
2017-01-26T02:56:20.570Z,5.5
2017-01-26T02:56:50.605Z,5.51
2017-01-26T02:57:20.638Z,5.5
2017-01-26T02:57:50.667Z,5.48
2017-01-26T02:58:20.705Z,5.49
2017-01-26T02:58:50.738Z,5.49
2017-01-26T02:59:20.769Z,5.49
2017-01-26T02:59:50.802Z,5.49
2017-01-26T03:00:20.835Z,5.48
2017-01-26T03:00:50.869Z,5.5
2017-01-26T03:01:20.930Z,5.51
2017-01-26T03:01:50.936Z,5.5
2017-01-26T03:02:20.969Z,5.51
2017-01-26T03:02:50.999Z,5.52
2017-01-26T03:03:21.030Z,5.54
2017-01-26T03:03:51.062Z,5.56
2017-01-26T03:04:21.098Z,5.56
2017-01-26T03:04:51.202Z,5.56
2017-01-26T03:05:21.162Z,5.56
2017-01-26T03:05:51.196Z,5.56
2017-01-26T03:06:21.229Z,5.57
2017-01-26T03:06:51.264Z,5.56
2017-01-26T03:07:21.291Z,5.56
2017-01-26T03:07:51.329Z,5.56
2017-01-26T03:08:21.361Z,5.56
2017-01-26T03:08:51.392Z,5.57
2017-01-26T03:09:21.425Z,5.59
2017-01-26T03:09:51.460Z,5.6
2017-01-26T03:10:21.490Z,5.57
2017-01-26T03:10:51.525Z,5.56
2017-01-26T03:11:21.558Z,5.54
2017-01-26T03:11:51.591Z,5.52
2017-01-26T03:12:21.623Z,5.53
2017-01-26T03:12:51.656Z,5.54
2017-01-26T03:13:21.691Z,5.53
2017-01-26T03:13:51.724Z,5.54
2017-01-26T03:14:21.753Z,5.55
2017-01-26T03:14:51.804Z,5.56
2017-01-26T03:15:21.849Z,5.56
2017-01-26T03:15:51.855Z,5.54
2017-01-26T03:16:21.895Z,5.51
2017-01-26T03:16:51.922Z,5.51
2017-01-26T03:17:21.954Z,5.52
2017-01-26T03:17:51.985Z,5.53
2017-01-26T03:18:22.018Z,5.51
2017-01-26T03:18:52.051Z,5.5
2017-01-26T03:19:22.085Z,5.52
2017-01-26T03:19:52.123Z,5.51
2017-01-26T03:20:22.181Z,5.52
2017-01-26T03:20:52.183Z,5.53
2017-01-26T03:21:22.215Z,5.54
2017-01-26T03:21:52.249Z,5.55
2017-01-26T03:22:22.284Z,5.54
2017-01-26T03:22:52.319Z,5.52
2017-01-26T03:23:22.350Z,5.51
2017-01-26T03:23:52.383Z,5.5
2017-01-26T03:24:22.415Z,5.5
2017-01-26T03:24:52.447Z,5.49
2017-01-26T03:25:22.482Z,5.5
2017-01-26T03:25:52.514Z,5.5
2017-01-26T03:26:22.549Z,5.5
2017-01-26T03:26:52.578Z,5.48
2017-01-26T03:27:22.619Z,5.5
2017-01-26T03:27:52.648Z,5.48
2017-01-26T03:28:22.678Z,5.48
2017-01-26T03:28:52.710Z,5.47
2017-01-26T03:29:22.743Z,5.47
2017-01-26T03:29:52.777Z,5.47
2017-01-26T03:30:22.810Z,5.46
2017-01-26T03:30:52.843Z,5.46
2017-01-26T03:31:22.876Z,5.45
2017-01-26T03:31:52.913Z,5.42
2017-01-26T03:32:22.944Z,5.42
2017-01-26T03:32:52.979Z,5.42
2017-01-26T03:33:23.009Z,5.42
2017-01-26T03:33:53.040Z,5.41
2017-01-26T03:34:23.072Z,5.41
2017-01-26T03:34:53.104Z,5.42
2017-01-26T03:35:23.138Z,5.42
2017-01-26T03:35:53.171Z,5.42
2017-01-26T03:36:23.206Z,5.43
2017-01-26T03:36:53.241Z,5.42
2017-01-26T03:37:23.274Z,5.43
2017-01-26T03:37:53.306Z,5.44
2017-01-26T03:38:23.363Z,5.46
2017-01-26T03:38:53.368Z,5.46
2017-01-26T03:39:23.403Z,5.48
2017-01-26T03:39:53.438Z,5.48
2017-01-26T03:40:23.484Z,5.48
2017-01-26T03:40:53.500Z,5.49
2017-01-26T03:41:23.534Z,5.49
2017-01-26T03:41:53.569Z,5.49
2017-01-26T03:42:23.598Z,5.49
2017-01-26T03:42:53.634Z,5.47
2017-01-26T03:43:23.667Z,5.46
2017-01-26T03:43:53.697Z,5.45
2017-01-26T03:44:23.731Z,5.46
2017-01-26T03:44:53.768Z,5.45
2017-01-26T03:45:23.799Z,5.46
2017-01-26T03:45:53.831Z,5.47
2017-01-26T03:46:23.864Z,5.46
2017-01-26T03:46:53.899Z,5.47
2017-01-26T03:47:23.934Z,5.47
2017-01-26T03:47:53.961Z,5.47
2017-01-26T03:48:23.997Z,5.47
2017-01-26T03:48:54.028Z,5.47
2017-01-26T03:49:24.063Z,5.47
2017-01-26T03:49:54.093Z,5.47
2017-01-26T03:50:24.128Z,5.44
2017-01-26T03:50:54.184Z,5.43
2017-01-26T03:51:24.197Z,5.43
2017-01-26T03:51:54.228Z,5.43
2017-01-26T03:52:24.290Z,5.44
2017-01-26T03:52:54.290Z,5.44
2017-01-26T03:53:24.323Z,5.41
2017-01-26T03:53:54.356Z,5.39
2017-01-26T03:54:24.391Z,5.41
2017-01-26T03:54:54.419Z,5.41
2017-01-26T03:55:24.454Z,5.43
2017-01-26T03:55:54.488Z,5.42
2017-01-26T03:56:24.523Z,5.41
2017-01-26T03:56:54.556Z,5.41
2017-01-26T03:57:24.592Z,5.41
2017-01-26T03:57:54.618Z,5.43
2017-01-26T03:58:24.655Z,5.42
2017-01-26T03:58:54.683Z,5.41
2017-01-26T03:59:24.723Z,5.39
2017-01-26T03:59:54.750Z,5.39
2017-01-26T04:00:24.785Z,5.38
2017-01-26T04:00:54.814Z,5.38
2017-01-26T04:01:24.849Z,5.39
2017-01-26T04:01:54.885Z,5.39
2017-01-26T04:02:24.916Z,5.39
2017-01-26T04:02:54.946Z,5.41
2017-01-26T04:03:24.982Z,5.4
2017-01-26T04:03:55.013Z,5.4
2017-01-26T04:04:25.066Z,5.4
2017-01-26T04:04:55.084Z,5.4
2017-01-26T04:05:25.113Z,5.41
2017-01-26T04:05:55.145Z,5.41
2017-01-26T04:06:25.178Z,5.41
2017-01-26T04:06:55.213Z,5.4
2017-01-26T04:07:25.243Z,5.41
2017-01-26T04:07:55.276Z,5.4
2017-01-26T04:08:25.309Z,5.39
2017-01-26T04:08:55.347Z,5.39
2017-01-26T04:09:25.380Z,5.39
2017-01-26T04:09:55.408Z,5.38
2017-01-26T04:10:25.441Z,5.37
2017-01-26T04:10:55.497Z,5.38
2017-01-26T04:11:25.508Z,5.38
2017-01-26T04:11:55.537Z,5.4
2017-01-26T04:12:25.573Z,5.38
2017-01-26T04:12:55.605Z,5.36
2017-01-26T04:13:25.642Z,5.33
2017-01-26T04:13:55.675Z,5.33
2017-01-26T04:14:25.709Z,5.31
2017-01-26T04:14:55.735Z,5.31
2017-01-26T04:15:25.770Z,5.31
2017-01-26T04:15:55.801Z,5.32
2017-01-26T04:16:25.836Z,5.31
2017-01-26T04:16:55.868Z,5.3
2017-01-26T04:17:25.901Z,5.33
2017-01-26T04:17:55.931Z,5.33
2017-01-26T04:18:25.966Z,5.33
2017-01-26T04:18:55.998Z,5.32
2017-01-26T04:19:26.033Z,5.34
2017-01-26T04:19:56.067Z,5.33
2017-01-26T04:20:26.095Z,5.33
2017-01-26T04:20:56.129Z,5.36
2017-01-26T04:21:26.166Z,5.37
2017-01-26T04:21:56.203Z,5.36
2017-01-26T04:22:26.230Z,5.35
2017-01-26T04:22:56.262Z,5.36
2017-01-26T04:23:26.294Z,5.36
2017-01-26T04:23:56.328Z,5.35
2017-01-26T04:24:26.359Z,5.35
2017-01-26T04:24:56.396Z,5.32
2017-01-26T04:25:26.426Z,5.32
2017-01-26T04:25:56.460Z,5.31
2017-01-26T04:26:26.492Z,5.33
2017-01-26T04:26:56.523Z,5.34
2017-01-26T04:27:26.562Z,5.33
2017-01-26T04:27:56.590Z,5.29
2017-01-26T04:28:26.623Z,5.28
2017-01-26T04:28:56.662Z,5.29
2017-01-26T04:29:26.689Z,5.3
2017-01-26T04:29:56.720Z,5.3
2017-01-26T04:30:26.752Z,5.29
2017-01-26T04:30:56.789Z,5.29
2017-01-26T04:31:26.825Z,5.29
2017-01-26T04:31:56.851Z,5.3
2017-01-26T04:32:26.884Z,5.28
2017-01-26T04:32:56.920Z,5.28
2017-01-26T04:33:26.953Z,5.25
2017-01-26T04:33:56.984Z,5.24
2017-01-26T04:34:27.018Z,5.26
2017-01-26T04:34:57.047Z,5.27
2017-01-26T04:35:27.082Z,5.26
2017-01-26T04:35:57.115Z,5.27
2017-01-26T04:36:27.150Z,5.28
2017-01-26T04:36:57.181Z,5.28
2017-01-26T04:37:27.212Z,5.28
2017-01-26T04:37:57.247Z,5.28
2017-01-26T04:38:27.314Z,5.26
2017-01-26T04:38:57.311Z,5.27
2017-01-26T04:39:27.346Z,5.28
2017-01-26T04:39:57.381Z,5.27
2017-01-26T04:40:27.414Z,5.3
2017-01-26T04:40:57.443Z,5.29
2017-01-26T04:41:27.472Z,5.3
2017-01-26T04:41:57.507Z,5.29
2017-01-26T04:42:27.540Z,5.28
2017-01-26T04:42:57.575Z,5.25
2017-01-26T04:43:27.608Z,5.25
2017-01-26T04:43:57.647Z,5.24
2017-01-26T04:44:27.672Z,5.24
2017-01-26T04:44:57.703Z,5.26
2017-01-26T04:45:27.737Z,5.27
2017-01-26T04:45:57.769Z,5.28
2017-01-26T04:46:27.804Z,5.29
2017-01-26T04:46:57.836Z,5.28
2017-01-26T04:47:27.868Z,5.28
2017-01-26T04:47:57.900Z,5.26
2017-01-26T04:48:27.937Z,5.26
2017-01-26T04:48:57.963Z,5.27
2017-01-26T04:49:27.998Z,5.26
2017-01-26T04:49:58.031Z,5.23
2017-01-26T04:50:28.066Z,5.21
2017-01-26T04:50:58.095Z,5.21
2017-01-26T04:51:28.140Z,5.23
2017-01-26T04:51:58.182Z,5.24
2017-01-26T04:52:28.209Z,5.23
2017-01-26T04:52:58.230Z,5.2
2017-01-26T04:53:28.260Z,5.2
2017-01-26T04:53:58.296Z,5.22
2017-01-26T04:54:28.327Z,5.22
2017-01-26T04:54:58.376Z,5.18
2017-01-26T04:55:28.392Z,5.18
2017-01-26T04:55:58.425Z,5.16
2017-01-26T04:56:28.479Z,5.16
2017-01-26T04:56:58.492Z,5.18
2017-01-26T04:57:28.533Z,5.17
2017-01-26T04:57:58.558Z,5.16
2017-01-26T04:58:28.594Z,5.18
2017-01-26T04:58:58.622Z,5.19
2017-01-26T04:59:28.654Z,5.2
2017-01-26T04:59:58.687Z,5.21
2017-01-26T05:00:28.723Z,5.22
2017-01-26T05:00:58.752Z,5.22
2017-01-26T05:01:28.794Z,5.22
2017-01-26T05:01:58.819Z,5.23
2017-01-26T05:02:28.850Z,5.22
2017-01-26T05:02:58.882Z,5.23
2017-01-26T05:03:28.915Z,5.24
2017-01-26T05:03:58.952Z,5.25
2017-01-26T05:04:28.981Z,5.26
2017-01-26T05:04:59.025Z,5.25
2017-01-26T05:05:29.046Z,5.22
2017-01-26T05:05:59.079Z,5.21
2017-01-26T05:06:29.113Z,5.19
2017-01-26T05:06:59.149Z,5.19
2017-01-26T05:07:29.178Z,5.18
2017-01-26T05:07:59.232Z,5.16
2017-01-26T05:08:29.245Z,5.17
2017-01-26T05:08:59.278Z,5.18
2017-01-26T05:09:29.308Z,5.19
2017-01-26T05:09:59.338Z,5.18
2017-01-26T05:10:29.372Z,5.17
2017-01-26T05:10:59.411Z,5.19
2017-01-26T05:11:29.438Z,5.19
2017-01-26T05:11:59.476Z,5.18
2017-01-26T05:12:29.504Z,5.16
2017-01-26T05:12:59.569Z,5.16
2017-01-26T05:13:29.575Z,5.13
2017-01-26T05:13:59.605Z,5.11
2017-01-26T05:14:29.635Z,5.12
2017-01-26T05:14:59.668Z,5.13
2017-01-26T05:15:29.701Z,5.12
2017-01-26T05:15:59.735Z,5.13
2017-01-26T05:16:29.766Z,5.14
2017-01-26T05:16:59.801Z,5.14
2017-01-26T05:17:29.836Z,5.16
2017-01-26T05:17:59.865Z,5.17
2017-01-26T05:18:29.898Z,5.17
2017-01-26T05:18:59.930Z,5.17
2017-01-26T05:19:29.976Z,5.18
2017-01-26T05:19:59.996Z,5.19
2017-01-26T05:20:30.031Z,5.18
2017-01-26T05:21:00.062Z,5.2
2017-01-26T05:21:30.096Z,5.19
2017-01-26T05:22:00.126Z,5.18
2017-01-26T05:22:30.163Z,5.18
2017-01-26T05:23:00.190Z,5.14
2017-01-26T05:23:30.227Z,5.15
2017-01-26T05:24:00.258Z,5.13
2017-01-26T05:24:30.289Z,5.13
2017-01-26T05:25:00.324Z,5.15
2017-01-26T05:25:30.355Z,5.15
2017-01-26T05:26:00.387Z,5.14
2017-01-26T05:26:30.420Z,5.11
2017-01-26T05:27:00.454Z,5.1
2017-01-26T05:27:30.489Z,5.1
2017-01-26T05:28:00.519Z,5.09
2017-01-26T05:28:30.553Z,5.1
2017-01-26T05:29:00.584Z,5.11
2017-01-26T05:29:30.620Z,5.12
2017-01-26T05:30:00.651Z,5.13
2017-01-26T05:30:30.685Z,5.14
2017-01-26T05:31:00.713Z,5.13
2017-01-26T05:31:30.748Z,5.12
2017-01-26T05:32:00.780Z,5.12
2017-01-26T05:32:30.822Z,5.1
2017-01-26T05:33:00.846Z,5.08
2017-01-26T05:33:30.877Z,5.08
2017-01-26T05:34:00.914Z,5.07
2017-01-26T05:34:30.942Z,5.05
2017-01-26T05:35:00.974Z,5.05
2017-01-26T05:35:31.012Z,5.07
2017-01-26T05:36:01.041Z,5.08
2017-01-26T05:36:31.074Z,5.09
2017-01-26T05:37:01.108Z,5.09
2017-01-26T05:37:31.139Z,5.1
2017-01-26T05:38:01.172Z,5.09
2017-01-26T05:38:31.205Z,5.07
2017-01-26T05:39:01.238Z,5.07
2017-01-26T05:39:31.274Z,5.1
2017-01-26T05:40:01.305Z,5.1
2017-01-26T05:40:31.342Z,5.1
2017-01-26T05:41:01.368Z,5.09
2017-01-26T05:41:31.403Z,5.07
2017-01-26T05:42:01.434Z,5.08
2017-01-26T05:42:31.474Z,5.08
2017-01-26T05:43:01.503Z,5.08
2017-01-26T05:43:31.533Z,5.09
2017-01-26T05:44:01.571Z,5.09
2017-01-26T05:44:31.597Z,5.1
2017-01-26T05:45:01.634Z,5.11
2017-01-26T05:45:31.664Z,5.1
2017-01-26T05:46:01.695Z,5.1
2017-01-26T05:46:31.729Z,5.1
2017-01-26T05:47:01.762Z,5.1
2017-01-26T05:47:31.808Z,5.08
2017-01-26T05:48:01.829Z,5.08
2017-01-26T05:48:31.858Z,5.08
2017-01-26T05:49:01.892Z,5.06
2017-01-26T05:49:31.923Z,5.03
2017-01-26T05:50:01.958Z,4.99
2017-01-26T05:50:31.992Z,4.99
2017-01-26T05:51:02.022Z,4.99
2017-01-26T05:51:32.054Z,4.97
2017-01-26T05:52:02.091Z,4.97
2017-01-26T05:52:32.120Z,4.96
2017-01-26T05:53:02.156Z,4.96
2017-01-26T05:53:32.217Z,4.96
2017-01-26T05:54:02.280Z,4.97
2017-01-26T05:54:32.250Z,4.99
2017-01-26T05:55:02.284Z,4.99
2017-01-26T05:55:32.317Z,5
2017-01-26T05:56:02.349Z,5.01
2017-01-26T05:56:32.385Z,5.01
2017-01-26T05:57:02.418Z,5.04
2017-01-26T05:57:32.450Z,5.02
2017-01-26T05:58:02.517Z,5.01
2017-01-26T05:58:32.512Z,5
2017-01-26T05:59:02.546Z,4.98
2017-01-26T05:59:32.584Z,4.98
2017-01-26T06:00:02.611Z,4.99
2017-01-26T06:00:32.641Z,4.99
2017-01-26T06:01:02.677Z,4.99
2017-01-26T06:01:32.712Z,4.98
2017-01-26T06:02:02.741Z,4.99
2017-01-26T06:02:32.773Z,4.98
2017-01-26T06:03:02.825Z,4.98
2017-01-26T06:03:32.924Z,4.98
2017-01-26T06:04:02.876Z,5
2017-01-26T06:04:32.905Z,5.01
2017-01-26T06:05:02.943Z,5.02
2017-01-26T06:05:32.969Z,5.02
2017-01-26T06:06:03.030Z,5.02
2017-01-26T06:06:33.036Z,5.03
2017-01-26T06:07:03.070Z,5.03
2017-01-26T06:07:33.104Z,5.02
2017-01-26T06:08:03.136Z,5.02
2017-01-26T06:08:33.167Z,5.04
2017-01-26T06:09:03.198Z,5.03
2017-01-26T06:09:33.234Z,5.04
2017-01-26T06:10:03.266Z,5.05
2017-01-26T06:10:33.302Z,5.05
2017-01-26T06:11:03.331Z,5.05
2017-01-26T06:11:33.361Z,5.06
2017-01-26T06:12:03.395Z,5.05
2017-01-26T06:12:33.428Z,5.03
2017-01-26T06:13:03.459Z,5.02
2017-01-26T06:13:33.492Z,5.03
2017-01-26T06:14:03.527Z,5.03
2017-01-26T06:14:33.568Z,5.04
2017-01-26T06:15:03.622Z,5.07
2017-01-26T06:15:33.622Z,5.06
2017-01-26T06:16:03.656Z,5.05
2017-01-26T06:16:33.689Z,5.07
2017-01-26T06:17:03.721Z,5.07
2017-01-26T06:17:33.756Z,5.07
2017-01-26T06:18:03.787Z,5.09
2017-01-26T06:18:33.818Z,5.08
2017-01-26T06:19:03.855Z,5.08
2017-01-26T06:19:33.886Z,5.09
2017-01-26T06:20:03.917Z,5.09
2017-01-26T06:20:33.949Z,5.1
2017-01-26T06:21:03.985Z,5.09
2017-01-26T06:21:34.016Z,5.08
2017-01-26T06:22:04.051Z,5.09
2017-01-26T06:22:34.080Z,5.07
2017-01-26T06:23:04.116Z,5.09
2017-01-26T06:23:34.148Z,5.09
2017-01-26T06:24:04.178Z,5.08
2017-01-26T06:24:34.211Z,5.1
2017-01-26T06:25:04.244Z,5.09
2017-01-26T06:25:34.280Z,5.11
2017-01-26T06:26:04.320Z,5.11
2017-01-26T06:26:34.342Z,5.11
2017-01-26T06:27:04.379Z,5.12
2017-01-26T06:27:34.411Z,5.12
2017-01-26T06:28:04.445Z,5.13
2017-01-26T06:28:34.478Z,5.14
2017-01-26T06:29:04.508Z,5.16
2017-01-26T06:29:34.543Z,5.17
2017-01-26T06:30:04.590Z,5.15
2017-01-26T06:30:34.606Z,5.14
2017-01-26T06:31:04.642Z,5.15
2017-01-26T06:31:34.673Z,5.15
2017-01-26T06:32:04.704Z,5.15
2017-01-26T06:32:34.740Z,5.13
2017-01-26T06:33:04.772Z,5.12
2017-01-26T06:33:34.801Z,5.12
2017-01-26T06:34:04.853Z,5.13
2017-01-26T06:34:34.870Z,5.13
2017-01-26T06:35:04.904Z,5.13
2017-01-26T06:35:34.932Z,5.14
2017-01-26T06:36:04.966Z,5.14
2017-01-26T06:36:34.997Z,5.16
2017-01-26T06:37:05.034Z,5.15
2017-01-26T06:37:35.069Z,5.15
2017-01-26T06:38:05.097Z,5.15
2017-01-26T06:38:35.128Z,5.17
2017-01-26T06:39:05.161Z,5.17
2017-01-26T06:39:35.201Z,5.18
2017-01-26T06:40:05.232Z,5.16
2017-01-26T06:40:35.262Z,5.13
2017-01-26T06:41:05.296Z,5.13